sensor_id;sensor_type;location;lat;lon;timestamp;pressure;altitude;pressure_sealevel;temperature;humidity
38022;BME280;23832;43.216;27.946;2023-01-27T00:01:41;100462.94;;;11.39;100.00
38022;BME280;23832;43.216;27.946;2023-01-27T00:03:42;100469.03;;;11.40;100.00
38022;BME280;23832;43.216;27.946;2023-01-27T00:05:44;100454.84;;;11.41;100.00
38022;BME280;23832;43.216;27.946;2023-01-27T00:07:46;100455.84;;;11.40;100.00
38022;BME280;23832;43.216;27.946;2023-01-27T00:09:48;100443.47;;;11.40;100.00
38022;BME280;23832;43.216;27.946;2023-01-27T00:11:50;100421.34;;;11.41;100.00
38022;BME280;23832;43.216;27.946;2023-01-27T00:14:09;100433.72;;;11.41;100.00
38022;BME280;23832;43.216;27.946;2023-01-27T00:16:11;100439.00;;;11.41;100.00
38022;BME280;23832;43.216;27.946;2023-01-27T00:18:14;100423.16;;;11.41;100.00
38022;BME280;23832;43.216;27.946;2023-01-27T00:20:16;100425.63;;;11.42;100.00
38022;BME280;23832;43.216;27.946;2023-01-27T00:22:40;100418.53;;;11.43;100.00
38022;BME280;23832;43.216;27.946;2023-01-27T00:24:59;100419.53;;;11.42;100.00
38022;BME280;23832;43.216;27.946;2023-01-27T00:27:00;100434.19;;;11.44;100.00
38022;BME280;23832;43.216;27.946;2023-01-27T00:29:01;100439.66;;;11.43;100.00
38022;BME280;23832;43.216;27.946;2023-01-27T00:31:03;100446.56;;;11.44;100.00
38022;BME280;23832;43.216;27.946;2023-01-27T00:33:07;100439.47;;;11.44;100.00
38022;BME280;23832;43.216;27.946;2023-01-27T00:35:27;100443.94;;;11.44;100.00
38022;BME280;23832;43.216;27.946;2023-01-27T00:37:29;100437.84;;;11.43;100.00
38022;BME280;23832;43.216;27.946;2023-01-27T00:39:31;100446.38;;;11.45;100.00
38022;BME280;23832;43.216;27.946;2023-01-27T00:41:33;100441.09;;;11.45;100.00
38022;BME280;23832;43.216;27.946;2023-01-27T00:43:35;100429.53;;;11.46;100.00
38022;BME280;23832;43.216;27.946;2023-01-27T00:45:37;100433.19;;;11.45;100.00
38022;BME280;23832;43.216;27.946;2023-01-27T00:47:51;100419.97;;;11.45;100.00
38022;BME280;23832;43.216;27.946;2023-01-27T00:49:53;100432.38;;;11.45;100.00
38022;BME280;23832;43.216;27.946;2023-01-27T00:51:56;100435.00;;;11.45;100.00
38022;BME280;23832;43.216;27.946;2023-01-27T00:53:58;100418.34;;;11.44;100.00
38022;BME280;23832;43.216;27.946;2023-01-27T00:56:02;100425.06;;;11.47;100.00
38022;BME280;23832;43.216;27.946;2023-01-27T00:58:04;100420.63;;;11.47;100.00
38022;BME280;23832;43.216;27.946;2023-01-27T01:00:06;100413.69;;;11.46;100.00
38022;BME280;23832;43.216;27.946;2023-01-27T01:02:09;100410.25;;;11.46;100.00
38022;BME280;23832;43.216;27.946;2023-01-27T01:04:10;100418.78;;;11.48;100.00
38022;BME280;23832;43.216;27.946;2023-01-27T01:06:13;100406.59;;;11.47;100.00
38022;BME280;23832;43.216;27.946;2023-01-27T01:08:16;100422.25;;;11.48;100.00
38022;BME280;23832;43.216;27.946;2023-01-27T01:10:18;100412.69;;;11.47;100.00
38022;BME280;23832;43.216;27.946;2023-01-27T01:12:20;100427.53;;;11.48;100.00
38022;BME280;23832;43.216;27.946;2023-01-27T01:14:21;100424.06;;;11.48;100.00
38022;BME280;23832;43.216;27.946;2023-01-27T01:16:23;100413.50;;;11.48;100.00
38022;BME280;23832;43.216;27.946;2023-01-27T01:18:25;100429.34;;;11.48;100.00
38022;BME280;23832;43.216;27.946;2023-01-27T01:20:27;100420.44;;;11.49;100.00
38022;BME280;23832;43.216;27.946;2023-01-27T01:22:28;100424.06;;;11.48;100.00
38022;BME280;23832;43.216;27.946;2023-01-27T01:24:32;100421.44;;;11.48;100.00
38022;BME280;23832;43.216;27.946;2023-01-27T01:26:33;100405.41;;;11.49;100.00
38022;BME280;23832;43.216;27.946;2023-01-27T01:28:35;100403.56;;;11.50;100.00
38022;BME280;23832;43.216;27.946;2023-01-27T01:30:37;100402.75;;;11.49;100.00
38022;BME280;23832;43.216;27.946;2023-01-27T01:32:39;100395.66;;;11.50;100.00
38022;BME280;23832;43.216;27.946;2023-01-27T01:34:40;100406.06;;;11.51;100.00
38022;BME280;23832;43.216;27.946;2023-01-27T01:36:43;100404.25;;;11.52;100.00
38022;BME280;23832;43.216;27.946;2023-01-27T01:38:45;100402.41;;;11.52;100.00
38022;BME280;23832;43.216;27.946;2023-01-27T01:40:49;100405.06;;;11.52;100.00
38022;BME280;23832;43.216;27.946;2023-01-27T01:42:51;100394.50;;;11.52;100.00
38022;BME280;23832;43.216;27.946;2023-01-27T01:47:13;100391.84;;;11.52;100.00
38022;BME280;23832;43.216;27.946;2023-01-27T01:49:15;100390.03;;;11.53;100.00
38022;BME280;23832;43.216;27.946;2023-01-27T01:51:20;100393.50;;;11.53;100.00
38022;BME280;23832;43.216;27.946;2023-01-27T01:53:23;100395.31;;;11.53;100.00
38022;BME280;23832;43.216;27.946;2023-01-27T01:55:29;100385.75;;;11.52;100.00
38022;BME280;23832;43.216;27.946;2023-01-27T01:57:32;100390.03;;;11.53;100.00
38022;BME280;23832;43.216;27.946;2023-01-27T01:59:37;100395.94;;;11.55;100.00
38022;BME280;23832;43.216;27.946;2023-01-27T02:01:41;100383.75;;;11.54;100.00
38022;BME280;23832;43.216;27.946;2023-01-27T02:03:44;100379.91;;;11.56;100.00
38022;BME280;23832;43.216;27.946;2023-01-27T02:05:48;100379.09;;;11.56;100.00
38022;BME280;23832;43.216;27.946;2023-01-27T02:07:51;100373.81;;;11.56;100.00
38022;BME280;23832;43.216;27.946;2023-01-27T02:09:55;100361.63;;;11.55;100.00
38022;BME280;23832;43.216;27.946;2023-01-27T02:11:57;100358.78;;;11.56;100.00
38022;BME280;23832;43.216;27.946;2023-01-27T02:14:00;100365.88;;;11.56;100.00
38022;BME280;23832;43.216;27.946;2023-01-27T02:16:02;100365.88;;;11.56;100.00
38022;BME280;23832;43.216;27.946;2023-01-27T02:18:04;100362.44;;;11.55;100.00
38022;BME280;23832;43.216;27.946;2023-01-27T02:20:08;100357.16;;;11.55;100.00
38022;BME280;23832;43.216;27.946;2023-01-27T02:22:13;100352.69;;;11.56;100.00
38022;BME280;23832;43.216;27.946;2023-01-27T02:24:20;100341.13;;;11.57;100.00
38022;BME280;23832;43.216;27.946;2023-01-27T02:26:27;100330.38;;;11.58;100.00
38022;BME280;23832;43.216;27.946;2023-01-27T02:28:29;100319.81;;;11.58;100.00
38022;BME280;23832;43.216;27.946;2023-01-27T02:30:31;100332.19;;;11.58;100.00
38022;BME280;23832;43.216;27.946;2023-01-27T02:32:33;100321.63;;;11.58;100.00
38022;BME280;23832;43.216;27.946;2023-01-27T02:34:35;100310.06;;;11.59;100.00
38022;BME280;23832;43.216;27.946;2023-01-27T02:36:39;100300.50;;;11.58;100.00
38022;BME280;23832;43.216;27.946;2023-01-27T02:38:42;100294.22;;;11.59;100.00
38022;BME280;23832;43.216;27.946;2023-01-27T02:40:45;100281.03;;;11.59;100.00
38022;BME280;23832;43.216;27.946;2023-01-27T02:42:50;100282.03;;;11.58;100.00
38022;BME280;23832;43.216;27.946;2023-01-27T02:44:54;100275.75;;;11.59;100.00
38022;BME280;23832;43.216;27.946;2023-01-27T02:46:56;100293.25;;;11.60;100.00
38022;BME280;23832;43.216;27.946;2023-01-27T02:48:58;100283.50;;;11.60;100.00
38022;BME280;23832;43.216;27.946;2023-01-27T02:50:59;100292.22;;;11.61;100.00
38022;BME280;23832;43.216;27.946;2023-01-27T02:53:01;100285.31;;;11.60;100.00
38022;BME280;23832;43.216;27.946;2023-01-27T02:55:03;100274.75;;;11.60;100.00
38022;BME280;23832;43.216;27.946;2023-01-27T02:57:05;100279.22;;;11.59;100.00
38022;BME280;23832;43.216;27.946;2023-01-27T02:59:09;100275.56;;;11.60;100.00
38022;BME280;23832;43.216;27.946;2023-01-27T03:01:10;100271.94;;;11.61;100.00
38022;BME280;23832;43.216;27.946;2023-01-27T03:03:12;100266.44;;;11.63;100.00
38022;BME280;23832;43.216;27.946;2023-01-27T03:05:14;100268.09;;;11.64;100.00
38022;BME280;23832;43.216;27.946;2023-01-27T03:07:15;100257.53;;;11.64;100.00
38022;BME280;23832;43.216;27.946;2023-01-27T03:09:17;100245.13;;;11.64;100.00
38022;BME280;23832;43.216;27.946;2023-01-27T03:11:19;100240.66;;;11.65;100.00
38022;BME280;23832;43.216;27.946;2023-01-27T03:13:35;100240.66;;;11.65;100.00
38022;BME280;23832;43.216;27.946;2023-01-27T03:15:38;100238.22;;;11.63;100.00
38022;BME280;23832;43.216;27.946;2023-01-27T03:18:02;100231.94;;;11.64;100.00
38022;BME280;23832;43.216;27.946;2023-01-27T03:20:15;100214.47;;;11.63;100.00
38022;BME280;23832;43.216;27.946;2023-01-27T03:22:17;100200.44;;;11.63;100.00
38022;BME280;23832;43.216;27.946;2023-01-27T03:24:19;100202.06;;;11.64;100.00
38022;BME280;23832;43.216;27.946;2023-01-27T03:26:21;100188.88;;;11.64;100.00
38022;BME280;23832;43.216;27.946;2023-01-27T03:28:22;100184.59;;;11.63;100.00
38022;BME280;23832;43.216;27.946;2023-01-27T03:30:24;100173.22;;;11.62;100.00
38022;BME280;23832;43.216;27.946;2023-01-27T03:32:26;100163.47;;;11.63;100.00
38022;BME280;23832;43.216;27.946;2023-01-27T03:34:29;100169.78;;;11.62;100.00
38022;BME280;23832;43.216;27.946;2023-01-27T03:36:31;100166.31;;;11.61;100.00
38022;BME280;23832;43.216;27.946;2023-01-27T03:38:50;100184.59;;;11.63;100.00
38022;BME280;23832;43.216;27.946;2023-01-27T03:41:08;100196.19;;;11.62;100.00
38022;BME280;23832;43.216;27.946;2023-01-27T03:43:27;100184.59;;;11.63;100.00
38022;BME280;23832;43.216;27.946;2023-01-27T03:45:47;100194.34;;;11.62;100.00
38022;BME280;23832;43.216;27.946;2023-01-27T03:48:07;100202.28;;;11.62;100.00
38022;BME280;23832;43.216;27.946;2023-01-27T03:50:09;100211.00;;;11.63;100.00
38022;BME280;23832;43.216;27.946;2023-01-27T03:52:18;100222.38;;;11.63;100.00
38022;BME280;23832;43.216;27.946;2023-01-27T03:54:20;100232.94;;;11.63;100.00
38022;BME280;23832;43.216;27.946;2023-01-27T03:56:21;100250.41;;;11.64;100.00
38022;BME280;23832;43.216;27.946;2023-01-27T03:58:24;100237.41;;;11.63;100.00
38022;BME280;23832;43.216;27.946;2023-01-27T04:00:25;100231.13;;;11.64;100.00
38022;BME280;23832;43.216;27.946;2023-01-27T04:02:28;100248.78;;;11.63;100.00
38022;BME280;23832;43.216;27.946;2023-01-27T04:04:48;100232.13;;;11.63;100.00
38022;BME280;23832;43.216;27.946;2023-01-27T04:07:07;100216.09;;;11.64;100.00
38022;BME280;23832;43.216;27.946;2023-01-27T04:09:09;100212.44;;;11.65;100.00
38022;BME280;23832;43.216;27.946;2023-01-27T04:11:11;100218.19;;;11.69;100.00
38022;BME280;23832;43.216;27.946;2023-01-27T04:13:30;100214.53;;;11.70;100.00
38022;BME280;23832;43.216;27.946;2023-01-27T04:15:32;100206.22;;;11.73;100.00
38022;BME280;23832;43.216;27.946;2023-01-27T04:17:34;100209.88;;;11.72;100.00
38022;BME280;23832;43.216;27.946;2023-01-27T04:19:40;100204.84;;;11.77;100.00
38022;BME280;23832;43.216;27.946;2023-01-27T04:21:43;100197.72;;;11.78;100.00
38022;BME280;23832;43.216;27.946;2023-01-27T04:23:45;100198.38;;;11.80;100.00
38022;BME280;23832;43.216;27.946;2023-01-27T04:25:47;100207.13;;;11.80;100.00
38022;BME280;23832;43.216;27.946;2023-01-27T04:27:49;100211.41;;;11.81;100.00
38022;BME280;23832;43.216;27.946;2023-01-27T04:29:51;100189.25;;;11.82;100.00
38022;BME280;23832;43.216;27.946;2023-01-27T04:31:53;100181.94;;;11.84;100.00
38022;BME280;23832;43.216;27.946;2023-01-27T04:33:56;100174.03;;;11.84;100.00
38022;BME280;23832;43.216;27.946;2023-01-27T04:35:58;100177.31;;;11.86;100.00
38022;BME280;23832;43.216;27.946;2023-01-27T04:38:02;100176.31;;;11.87;100.00
38022;BME280;23832;43.216;27.946;2023-01-27T04:40:04;100172.66;;;11.88;100.00
38022;BME280;23832;43.216;27.946;2023-01-27T04:42:06;100181.19;;;11.90;100.00
38022;BME280;23832;43.216;27.946;2023-01-27T04:44:08;100175.91;;;11.90;100.00
38022;BME280;23832;43.216;27.946;2023-01-27T04:46:10;100173.88;;;11.92;100.00
38022;BME280;23832;43.216;27.946;2023-01-27T04:48:11;100179.97;;;11.93;100.00
38022;BME280;23832;43.216;27.946;2023-01-27T04:50:13;100189.53;;;11.94;100.00
38022;BME280;23832;43.216;27.946;2023-01-27T04:52:15;100191.00;;;11.97;100.00
38022;BME280;23832;43.216;27.946;2023-01-27T04:54:19;100185.06;;;11.94;100.00
38022;BME280;23832;43.216;27.946;2023-01-27T04:56:22;100188.72;;;11.93;100.00
38022;BME280;23832;43.216;27.946;2023-01-27T04:58:24;100191.16;;;11.95;100.00
38022;BME280;23832;43.216;27.946;2023-01-27T05:00:26;100170.22;;;11.93;100.00
38022;BME280;23832;43.216;27.946;2023-01-27T05:02:28;100174.69;;;11.93;100.00
38022;BME280;23832;43.216;27.946;2023-01-27T05:04:30;100172.88;;;11.93;100.00
38022;BME280;23832;43.216;27.946;2023-01-27T05:06:34;100164.13;;;11.93;100.00
38022;BME280;23832;43.216;27.946;2023-01-27T05:08:35;100168.59;;;11.92;100.00
38022;BME280;23832;43.216;27.946;2023-01-27T05:10:38;100165.13;;;11.92;100.00
38022;BME280;23832;43.216;27.946;2023-01-27T05:12:43;100163.31;;;11.92;100.00
38022;BME280;23832;43.216;27.946;2023-01-27T05:14:45;100166.78;;;11.93;100.00
38022;BME280;23832;43.216;27.946;2023-01-27T05:16:46;100153.56;;;11.93;100.00
38022;BME280;23832;43.216;27.946;2023-01-27T05:18:48;100140.56;;;11.91;100.00
38022;BME280;23832;43.216;27.946;2023-01-27T05:20:50;100143.19;;;11.91;100.00
38022;BME280;23832;43.216;27.946;2023-01-27T05:22:52;100153.75;;;11.91;100.00
38022;BME280;23832;43.216;27.946;2023-01-27T05:25:15;100152.94;;;11.91;100.00
38022;BME280;23832;43.216;27.946;2023-01-27T05:27:18;100156.41;;;11.91;100.00
38022;BME280;23832;43.216;27.946;2023-01-27T05:29:20;100141.38;;;11.92;100.00
38022;BME280;23832;43.216;27.946;2023-01-27T05:31:22;100141.56;;;11.90;100.00
38022;BME280;23832;43.216;27.946;2023-01-27T05:33:24;100153.16;;;11.89;100.00
38022;BME280;23832;43.216;27.946;2023-01-27T05:35:26;100138.09;;;11.90;100.00
38022;BME280;23832;43.216;27.946;2023-01-27T05:37:27;100137.09;;;11.91;100.00
38022;BME280;23832;43.216;27.946;2023-01-27T05:39:29;100131.81;;;11.91;100.00
38022;BME280;23832;43.216;27.946;2023-01-27T05:41:31;100138.94;;;11.90;100.00
38022;BME280;23832;43.216;27.946;2023-01-27T05:43:36;100146.84;;;11.90;100.00
38022;BME280;23832;43.216;27.946;2023-01-27T05:45:38;100142.38;;;11.91;100.00
38022;BME280;23832;43.216;27.946;2023-01-27T05:47:40;100133.63;;;11.90;100.00
38022;BME280;23832;43.216;27.946;2023-01-27T05:49:42;100139.75;;;11.91;100.00
38022;BME280;23832;43.216;27.946;2023-01-27T05:51:43;100134.47;;;11.91;100.00
38022;BME280;23832;43.216;27.946;2023-01-27T05:53:45;100132.63;;;11.91;100.00
38022;BME280;23832;43.216;27.946;2023-01-27T05:55:47;100137.72;;;11.93;100.00
38022;BME280;23832;43.216;27.946;2023-01-27T05:57:49;100137.72;;;11.93;100.00
38022;BME280;23832;43.216;27.946;2023-01-27T05:59:52;100138.53;;;11.93;100.00
38022;BME280;23832;43.216;27.946;2023-01-27T06:01:53;100140.16;;;11.94;100.00
38022;BME280;23832;43.216;27.946;2023-01-27T06:03:55;100138.97;;;11.97;100.00
38022;BME280;23832;43.216;27.946;2023-01-27T06:05:57;100145.06;;;11.98;100.00
38022;BME280;23832;43.216;27.946;2023-01-27T06:07:59;100146.69;;;11.99;100.00
38022;BME280;23832;43.216;27.946;2023-01-27T06:10:01;100137.75;;;12.00;100.00
38022;BME280;23832;43.216;27.946;2023-01-27T06:12:04;100147.31;;;12.01;100.00
38022;BME280;23832;43.216;27.946;2023-01-27T06:14:06;100143.88;;;12.00;100.00
38022;BME280;23832;43.216;27.946;2023-01-27T06:16:10;100146.31;;;12.02;100.00
38022;BME280;23832;43.216;27.946;2023-01-27T06:18:12;100139.38;;;12.01;100.00
38022;BME280;23832;43.216;27.946;2023-01-27T06:20:14;100152.59;;;12.01;100.00
38022;BME280;23832;43.216;27.946;2023-01-27T06:22:16;100148.75;;;12.03;100.00
38022;BME280;23832;43.216;27.946;2023-01-27T06:24:17;100137.19;;;12.04;100.00
38022;BME280;23832;43.216;27.946;2023-01-27T06:26:19;100134.56;;;12.04;100.00
38022;BME280;23832;43.216;27.946;2023-01-27T06:28:21;100131.72;;;12.06;100.00
38022;BME280;23832;43.216;27.946;2023-01-27T06:30:23;100124.41;;;12.08;100.00
38022;BME280;23832;43.216;27.946;2023-01-27T06:32:26;100113.84;;;12.08;100.00
38022;BME280;23832;43.216;27.946;2023-01-27T06:34:28;100111.00;;;12.09;100.00
38022;BME280;23832;43.216;27.946;2023-01-27T06:36:29;100110.78;;;12.11;100.00
38022;BME280;23832;43.216;27.946;2023-01-27T06:38:32;100109.97;;;12.10;100.00
38022;BME280;23832;43.216;27.946;2023-01-27T06:40:34;100109.78;;;12.12;100.00
38022;BME280;23832;43.216;27.946;2023-01-27T06:42:36;100100.84;;;12.13;100.00
38022;BME280;23832;43.216;27.946;2023-01-27T06:44:37;100105.94;;;12.14;100.00
38022;BME280;23832;43.216;27.946;2023-01-27T06:46:40;100096.19;;;12.15;100.00
38022;BME280;23832;43.216;27.946;2023-01-27T06:48:43;100106.56;;;12.16;100.00
38022;BME280;23832;43.216;27.946;2023-01-27T06:50:45;100112.66;;;12.17;100.00
38022;BME280;23832;43.216;27.946;2023-01-27T06:52:47;100111.66;;;12.18;100.00
38022;BME280;23832;43.216;27.946;2023-01-27T06:54:49;100125.66;;;12.18;100.00
38022;BME280;23832;43.216;27.946;2023-01-27T06:56:54;100126.47;;;12.19;100.00
38022;BME280;23832;43.216;27.946;2023-01-27T06:58:55;100126.09;;;12.22;100.00
38022;BME280;23832;43.216;27.946;2023-01-27T07:00:57;100136.28;;;12.25;100.00
38022;BME280;23832;43.216;27.946;2023-01-27T07:02:59;100140.16;;;12.29;100.00
38022;BME280;23832;43.216;27.946;2023-01-27T07:05:02;100134.28;;;12.34;100.00
38022;BME280;23832;43.216;27.946;2023-01-27T07:07:04;100141.81;;;12.37;100.00
38022;BME280;23832;43.216;27.946;2023-01-27T07:09:06;100146.09;;;12.38;100.00
38022;BME280;23832;43.216;27.946;2023-01-27T07:11:08;100134.50;;;12.39;100.00
38022;BME280;23832;43.216;27.946;2023-01-27T07:13:10;100116.81;;;12.39;100.00
38022;BME280;23832;43.216;27.946;2023-01-27T07:15:13;100099.13;;;12.40;100.00
38022;BME280;23832;43.216;27.946;2023-01-27T07:17:14;100093.03;;;12.39;100.00
38022;BME280;23832;43.216;27.946;2023-01-27T07:19:16;100098.13;;;12.41;100.00
38022;BME280;23832;43.216;27.946;2023-01-27T07:21:20;100102.59;;;12.40;100.00
38022;BME280;23832;43.216;27.946;2023-01-27T07:23:21;100113.19;;;12.40;100.00
38022;BME280;23832;43.216;27.946;2023-01-27T07:25:23;100120.09;;;12.41;100.00
38022;BME280;23832;43.216;27.946;2023-01-27T07:27:25;100103.44;;;12.41;100.00
38022;BME280;23832;43.216;27.946;2023-01-27T07:29:27;100111.16;;;12.42;100.00
38022;BME280;23832;43.216;27.946;2023-01-27T07:31:29;100096.91;;;12.43;100.00
38022;BME280;23832;43.216;27.946;2023-01-27T07:33:31;100103.03;;;12.44;100.00
38022;BME280;23832;43.216;27.946;2023-01-27T07:35:34;100105.25;;;12.47;100.00
38022;BME280;23832;43.216;27.946;2023-01-27T07:37:37;100101.03;;;12.53;100.00
38022;BME280;23832;43.216;27.946;2023-01-27T07:39:39;100101.22;;;12.58;100.00
38022;BME280;23832;43.216;27.946;2023-01-27T07:41:41;100089.25;;;12.62;100.00
38022;BME280;23832;43.216;27.946;2023-01-27T07:43:43;100071.34;;;12.64;100.00
38022;BME280;23832;43.216;27.946;2023-01-27T07:45:44;100090.47;;;12.66;100.00
38022;BME280;23832;43.216;27.946;2023-01-27T07:47:48;100094.56;;;12.68;100.00
38022;BME280;23832;43.216;27.946;2023-01-27T07:49:49;100096.59;;;12.73;100.00
38022;BME280;23832;43.216;27.946;2023-01-27T07:51:51;100083.97;;;12.75;100.00
38022;BME280;23832;43.216;27.946;2023-01-27T07:53:54;100092.56;;;12.77;100.00
38022;BME280;23832;43.216;27.946;2023-01-27T07:55:57;100088.88;;;12.78;100.00
38022;BME280;23832;43.216;27.946;2023-01-27T07:57:59;100097.63;;;12.78;100.00
38022;BME280;23832;43.216;27.946;2023-01-27T08:00:02;100088.47;;;12.81;100.00
38022;BME280;23832;43.216;27.946;2023-01-27T08:02:05;100071.78;;;12.81;100.00
38022;BME280;23832;43.216;27.946;2023-01-27T08:04:07;100087.66;;;12.81;100.00
38022;BME280;23832;43.216;27.946;2023-01-27T08:06:09;100092.75;;;12.82;100.00
38022;BME280;23832;43.216;27.946;2023-01-27T08:08:12;100083.78;;;12.83;100.00
38022;BME280;23832;43.216;27.946;2023-01-27T08:10:15;100085.25;;;12.86;100.00
38022;BME280;23832;43.216;27.946;2023-01-27T08:12:17;100091.16;;;12.88;100.00
38022;BME280;23832;43.216;27.946;2023-01-27T08:14:19;100083.59;;;12.91;100.00
38022;BME280;23832;43.216;27.946;2023-01-27T08:16:21;100081.56;;;12.93;100.00
38022;BME280;23832;43.216;27.946;2023-01-27T08:18:23;100083.84;;;12.96;100.00
38022;BME280;23832;43.216;27.946;2023-01-27T08:20:25;100070.19;;;12.99;100.00
38022;BME280;23832;43.216;27.946;2023-01-27T08:22:27;100069.78;;;13.02;100.00
38022;BME280;23832;43.216;27.946;2023-01-27T08:24:29;100073.06;;;13.04;100.00
38022;BME280;23832;43.216;27.946;2023-01-27T08:26:32;100065.72;;;13.06;100.00
38022;BME280;23832;43.216;27.946;2023-01-27T08:28:35;100064.69;;;13.07;100.00
38022;BME280;23832;43.216;27.946;2023-01-27T08:30:37;100065.31;;;13.10;100.00
38022;BME280;23832;43.216;27.946;2023-01-27T08:32:39;100057.97;;;13.12;100.00
38022;BME280;23832;43.216;27.946;2023-01-27T08:34:41;100050.66;;;13.14;100.00
38022;BME280;23832;43.216;27.946;2023-01-27T08:36:43;100054.94;;;13.15;100.00
38022;BME280;23832;43.216;27.946;2023-01-27T08:38:45;100045.16;;;13.15;100.00
38022;BME280;23832;43.216;27.946;2023-01-27T08:40:48;100036.81;;;13.18;100.00
38022;BME280;23832;43.216;27.946;2023-01-27T08:42:51;100031.97;;;13.22;100.00
38022;BME280;23832;43.216;27.946;2023-01-27T08:44:53;100015.66;;;13.25;100.00
38022;BME280;23832;43.216;27.946;2023-01-27T08:46:55;100019.50;;;13.29;100.00
38022;BME280;23832;43.216;27.946;2023-01-27T08:48:56;100020.16;;;13.31;100.00
38022;BME280;23832;43.216;27.946;2023-01-27T08:50:59;100016.28;;;13.33;100.00
38022;BME280;23832;43.216;27.946;2023-01-27T08:53:01;100016.88;;;13.35;100.00
38022;BME280;23832;43.216;27.946;2023-01-27T08:55:04;100021.97;;;13.37;100.00
38022;BME280;23832;43.216;27.946;2023-01-27T08:57:05;100017.47;;;13.38;100.00
38022;BME280;23832;43.216;27.946;2023-01-27T08:59:09;100011.38;;;13.37;100.00
38022;BME280;23832;43.216;27.946;2023-01-27T09:01:11;100012.38;;;13.36;100.00
38022;BME280;23832;43.216;27.946;2023-01-27T09:03:13;100009.75;;;13.36;100.00
38022;BME280;23832;43.216;27.946;2023-01-27T09:05:15;100009.75;;;13.36;100.00
38022;BME280;23832;43.216;27.946;2023-01-27T09:07:17;100003.41;;;13.37;100.00
38022;BME280;23832;43.216;27.946;2023-01-27T09:09:19;99990.81;;;13.39;100.00
38022;BME280;23832;43.216;27.946;2023-01-27T09:11:21;99989.38;;;13.43;100.00
38022;BME280;23832;43.216;27.946;2023-01-27T09:13:23;99988.72;;;13.48;100.00
38022;BME280;23832;43.216;27.946;2023-01-27T09:15:26;99971.22;;;13.53;100.00
38022;BME280;23832;43.216;27.946;2023-01-27T09:17:28;99967.94;;;13.58;100.00
38022;BME280;23832;43.216;27.946;2023-01-27T09:19:30;99955.91;;;13.62;100.00
38022;BME280;23832;43.216;27.946;2023-01-27T09:21:32;99951.00;;;13.66;100.00
38022;BME280;23832;43.216;27.946;2023-01-27T09:23:34;99944.28;;;13.70;100.00
38022;BME280;23832;43.216;27.946;2023-01-27T09:25:35;99937.72;;;13.72;100.00
38022;BME280;23832;43.216;27.946;2023-01-27T09:27:37;99939.13;;;13.75;100.00
38022;BME280;23832;43.216;27.946;2023-01-27T09:29:39;99931.59;;;13.78;100.00
38022;BME280;23832;43.216;27.946;2023-01-27T09:31:42;99930.34;;;13.81;100.00
38022;BME280;23832;43.216;27.946;2023-01-27T09:33:44;99933.59;;;13.83;100.00
38022;BME280;23832;43.216;27.946;2023-01-27T09:35:48;99924.66;;;13.84;100.00
38022;BME280;23832;43.216;27.946;2023-01-27T09:37:53;99938.72;;;13.84;100.00
38022;BME280;23832;43.216;27.946;2023-01-27T09:39:55;99944.19;;;13.83;100.00
38022;BME280;23832;43.216;27.946;2023-01-27T09:42:14;99966.63;;;13.80;100.00
38022;BME280;23832;43.216;27.946;2023-01-27T09:44:27;99957.28;;;13.78;100.00
38022;BME280;23832;43.216;27.946;2023-01-27T09:46:37;99971.13;;;13.73;100.00
38022;BME280;23832;43.216;27.946;2023-01-27T09:48:49;99984.22;;;13.68;100.00
38022;BME280;23832;43.216;27.946;2023-01-27T09:50:59;99998.06;;;13.63;100.00
38022;BME280;23832;43.216;27.946;2023-01-27T09:53:13;99992.38;;;13.60;100.00
38022;BME280;23832;43.216;27.946;2023-01-27T09:55:19;100007.47;;;13.59;100.00
38022;BME280;23832;43.216;27.946;2023-01-27T09:57:24;100007.69;;;13.58;100.00
38022;BME280;23832;43.216;27.946;2023-01-27T09:59:34;100008.69;;;13.57;100.00
38022;BME280;23832;43.216;27.946;2023-01-27T10:01:42;100004.63;;;13.54;100.00
38022;BME280;23832;43.216;27.946;2023-01-27T10:03:56;100012.16;;;13.51;100.00
38022;BME280;23832;43.216;27.946;2023-01-27T10:08:28;100012.56;;;13.48;100.00
38022;BME280;23832;43.216;27.946;2023-01-27T10:10:42;100008.28;;;13.47;100.00
38022;BME280;23832;43.216;27.946;2023-01-27T10:12:51;99999.53;;;13.46;100.00
38022;BME280;23832;43.216;27.946;2023-01-27T10:15:01;99983.84;;;13.45;100.00
38022;BME280;23832;43.216;27.946;2023-01-27T10:19:36;99967.59;;;13.41;100.00
38022;BME280;23832;43.216;27.946;2023-01-27T10:21:44;99955.38;;;13.40;100.00
38022;BME280;23832;43.216;27.946;2023-01-27T10:23:53;99956.56;;;13.38;100.00
38022;BME280;23832;43.216;27.946;2023-01-27T10:25:57;99941.50;;;13.38;100.00
38022;BME280;23832;43.216;27.946;2023-01-27T10:28:02;99918.69;;;13.37;100.00
38022;BME280;23832;43.216;27.946;2023-01-27T10:30:08;99897.53;;;13.37;100.00
38022;BME280;23832;43.216;27.946;2023-01-27T10:32:14;99890.22;;;13.39;100.00
38022;BME280;23832;43.216;27.946;2023-01-27T10:34:22;99892.84;;;13.39;100.00
38022;BME280;23832;43.216;27.946;2023-01-27T10:36:30;99892.44;;;13.42;100.00
38022;BME280;23832;43.216;27.946;2023-01-27T10:38:37;99890.16;;;13.46;100.00